sensor_id;sensor_type;location;lat;lon;timestamp;pressure;altitude;pressure_sealevel;temperature;humidity
28911;BME280;16028;42.642;23.310;2023-07-02T00:02:00;93404.16;;;18.76;96.45
28911;BME280;16028;42.642;23.310;2023-07-02T00:04:26;93401.72;;;18.74;96.01
28911;BME280;16028;42.642;23.310;2023-07-02T00:06:53;93401.13;;;18.72;96.94
28911;BME280;16028;42.642;23.310;2023-07-02T00:09:21;93396.88;;;18.71;97.44
28911;BME280;16028;42.642;23.310;2023-07-02T00:11:48;93398.06;;;18.75;98.50
28911;BME280;16028;42.642;23.310;2023-07-02T00:14:15;93397.88;;;18.70;98.92
28911;BME280;16028;42.642;23.310;2023-07-02T00:16:44;93396.72;;;18.66;99.27
28911;BME280;16028;42.642;23.310;2023-07-02T00:19:11;93392.84;;;18.69;99.40
28911;BME280;16028;42.642;23.310;2023-07-02T00:21:38;93389.00;;;18.65;99.27
28911;BME280;16028;42.642;23.310;2023-07-02T00:24:06;93374.44;;;18.62;99.74
28911;BME280;16028;42.642;23.310;2023-07-02T00:26:36;93379.50;;;18.57;99.73
28911;BME280;16028;42.642;23.310;2023-07-02T00:29:05;93381.41;;;18.50;99.54
28911;BME280;16028;42.642;23.310;2023-07-02T00:31:33;93389.47;;;18.48;99.11
28911;BME280;16028;42.642;23.310;2023-07-02T00:34:00;93391.50;;;18.46;99.38
28911;BME280;16028;42.642;23.310;2023-07-02T00:36:27;93402.47;;;18.50;98.84
28911;BME280;16028;42.642;23.310;2023-07-02T00:38:55;93402.47;;;18.50;98.77
28911;BME280;16028;42.642;23.310;2023-07-02T00:41:22;93398.59;;;18.46;98.55
28911;BME280;16028;42.642;23.310;2023-07-02T00:43:50;93405.69;;;18.45;99.33
28911;BME280;16028;42.642;23.310;2023-07-02T00:46:20;93404.69;;;18.46;98.38
28911;BME280;16028;42.642;23.310;2023-07-02T00:48:48;93408.56;;;18.44;97.36
28911;BME280;16028;42.642;23.310;2023-07-02T00:51:17;93420.47;;;18.46;97.43
28911;BME280;16028;42.642;23.310;2023-07-02T00:53:44;93408.56;;;18.44;96.72
28911;BME280;16028;42.642;23.310;2023-07-02T00:56:11;93400.22;;;18.47;96.63
28911;BME280;16028;42.642;23.310;2023-07-02T00:58:40;93404.28;;;18.43;97.28
28911;BME280;16028;42.642;23.310;2023-07-02T01:01:14;93391.28;;;18.55;96.86
28911;BME280;16028;42.642;23.310;2023-07-02T01:03:50;93401.81;;;18.55;96.51
28911;BME280;16028;42.642;23.310;2023-07-02T01:06:19;93403.66;;;18.54;99.18
28911;BME280;16028;42.642;23.310;2023-07-02T01:08:50;93409.34;;;18.51;98.62
28911;BME280;16028;42.642;23.310;2023-07-02T01:11:17;93408.72;;;18.49;98.31
28911;BME280;16028;42.642;23.310;2023-07-02T01:13:45;93413.41;;;18.47;98.05
28911;BME280;16028;42.642;23.310;2023-07-02T01:16:13;93412.59;;;18.46;98.19
28911;BME280;16028;42.642;23.310;2023-07-02T01:18:41;93402.66;;;18.42;98.62
28911;BME280;16028;42.642;23.310;2023-07-02T01:21:09;93400.66;;;18.44;99.43
28911;BME280;16028;42.642;23.310;2023-07-02T01:23:37;93412.19;;;18.49;100.00
28911;BME280;16028;42.642;23.310;2023-07-02T01:26:03;93411.78;;;18.53;100.00
28911;BME280;16028;42.642;23.310;2023-07-02T01:28:36;93390.47;;;18.54;100.00
28911;BME280;16028;42.642;23.310;2023-07-02T01:31:04;93385.56;;;18.64;99.92
28911;BME280;16028;42.642;23.310;2023-07-02T01:33:31;93370.16;;;18.61;98.42
28911;BME280;16028;42.642;23.310;2023-07-02T01:35:57;93382.50;;;18.67;97.89
28911;BME280;16028;42.642;23.310;2023-07-02T01:38:26;93381.50;;;18.68;98.12
28911;BME280;16028;42.642;23.310;2023-07-02T01:40:53;93374.16;;;18.70;98.39
28911;BME280;16028;42.642;23.310;2023-07-02T01:43:20;93374.34;;;18.75;97.86
28911;BME280;16028;42.642;23.310;2023-07-02T01:45:46;93368.47;;;18.73;97.87
28911;BME280;16028;42.642;23.310;2023-07-02T01:48:13;93376.38;;;18.73;98.90
28911;BME280;16028;42.642;23.310;2023-07-02T01:50:40;93368.66;;;18.78;99.97
28911;BME280;16028;42.642;23.310;2023-07-02T01:53:07;93353.81;;;18.84;100.00
28911;BME280;16028;42.642;23.310;2023-07-02T01:55:35;93356.91;;;18.74;100.00
28911;BME280;16028;42.642;23.310;2023-07-02T01:58:02;93355.66;;;18.45;100.00
28911;BME280;16028;42.642;23.310;2023-07-02T02:00:29;93363.09;;;18.17;100.00
28911;BME280;16028;42.642;23.310;2023-07-02T02:02:56;93363.78;;;17.93;100.00
28911;BME280;16028;42.642;23.310;2023-07-02T02:05:23;93368.03;;;17.87;100.00
28911;BME280;16028;42.642;23.310;2023-07-02T02:07:49;93384.88;;;17.86;100.00
28911;BME280;16028;42.642;23.310;2023-07-02T02:10:16;93362.44;;;17.71;100.00
28911;BME280;16028;42.642;23.310;2023-07-02T02:12:45;93382.69;;;17.70;100.00
28911;BME280;16028;42.642;23.310;2023-07-02T02:15:11;93374.00;;;17.63;100.00
28911;BME280;16028;42.642;23.310;2023-07-02T02:17:39;93363.47;;;17.63;100.00
28911;BME280;16028;42.642;23.310;2023-07-02T02:20:07;93362.03;;;17.67;100.00
28911;BME280;16028;42.642;23.310;2023-07-02T02:22:35;93354.94;;;17.68;100.00
28911;BME280;16028;42.642;23.310;2023-07-02T02:25:02;93335.53;;;17.69;100.00
28911;BME280;16028;42.642;23.310;2023-07-02T02:27:29;93340.75;;;17.75;100.00
28911;BME280;16028;42.642;23.310;2023-07-02T02:29:58;93343.00;;;17.72;100.00
28911;BME280;16028;42.642;23.310;2023-07-02T02:32:25;93348.06;;;17.80;100.00
28911;BME280;16028;42.642;23.310;2023-07-02T02:34:51;93338.72;;;17.77;100.00
28911;BME280;16028;42.642;23.310;2023-07-02T02:37:20;93348.78;;;17.93;100.00
28911;BME280;16028;42.642;23.310;2023-07-02T02:39:47;93343.16;;;17.90;100.00
28911;BME280;16028;42.642;23.310;2023-07-02T02:42:14;93336.25;;;17.95;100.00
28911;BME280;16028;42.642;23.310;2023-07-02T02:44:41;93333.63;;;17.95;100.00
28911;BME280;16028;42.642;23.310;2023-07-02T02:47:09;93330.75;;;17.97;100.00
28911;BME280;16028;42.642;23.310;2023-07-02T02:49:37;93333.59;;;18.02;100.00
28911;BME280;16028;42.642;23.310;2023-07-02T02:52:07;93345.13;;;18.01;100.00
28911;BME280;16028;42.642;23.310;2023-07-02T02:54:34;93351.81;;;17.97;100.00
28911;BME280;16028;42.642;23.310;2023-07-02T02:57:01;93360.53;;;17.97;100.00
28911;BME280;16028;42.642;23.310;2023-07-02T02:59:27;93348.78;;;17.93;100.00
28911;BME280;16028;42.642;23.310;2023-07-02T03:01:55;93356.25;;;17.96;100.00
28911;BME280;16028;42.642;23.310;2023-07-02T03:04:23;93345.75;;;17.96;100.00
28911;BME280;16028;42.642;23.310;2023-07-02T03:06:51;93348.13;;;18.11;100.00
28911;BME280;16028;42.642;23.310;2023-07-02T03:09:19;93366.78;;;18.03;100.00
28911;BME280;16028;42.642;23.310;2023-07-02T03:11:46;93358.88;;;18.03;100.00
28911;BME280;16028;42.642;23.310;2023-07-02T03:14:14;93364.59;;;17.93;100.00
28911;BME280;16028;42.642;23.310;2023-07-02T03:16:41;93356.50;;;17.88;100.00
28911;BME280;16028;42.642;23.310;2023-07-02T03:19:08;93367.44;;;17.92;100.00
28911;BME280;16028;42.642;23.310;2023-07-02T03:21:36;93366.78;;;17.96;100.00
28911;BME280;16028;42.642;23.310;2023-07-02T03:24:04;93363.38;;;17.96;100.00
28911;BME280;16028;42.642;23.310;2023-07-02T03:26:30;93367.59;;;18.04;100.00
28911;BME280;16028;42.642;23.310;2023-07-02T03:28:57;93372.25;;;18.08;100.00
28911;BME280;16028;42.642;23.310;2023-07-02T03:31:24;93377.91;;;18.05;100.00
28911;BME280;16028;42.642;23.310;2023-07-02T03:33:51;93382.97;;;18.07;100.00
28911;BME280;16028;42.642;23.310;2023-07-02T03:36:18;93386.41;;;18.07;100.00
28911;BME280;16028;42.642;23.310;2023-07-02T03:38:46;93392.47;;;18.08;100.00
28911;BME280;16028;42.642;23.310;2023-07-02T03:41:13;93391.66;;;18.14;100.00
28911;BME280;16028;42.642;23.310;2023-07-02T03:43:42;93384.16;;;18.11;100.00
28911;BME280;16028;42.642;23.310;2023-07-02T03:46:12;93384.38;;;18.09;100.00
28911;BME280;16028;42.642;23.310;2023-07-02T03:48:40;93368.41;;;17.97;100.00
28911;BME280;16028;42.642;23.310;2023-07-02T03:51:10;93372.25;;;18.02;100.00
28911;BME280;16028;42.642;23.310;2023-07-02T03:53:38;93371.63;;;18.06;100.00
28911;BME280;16028;42.642;23.310;2023-07-02T03:56:06;93372.25;;;18.08;100.00
28911;BME280;16028;42.642;23.310;2023-07-02T03:58:33;93374.81;;;18.21;100.00
28911;BME280;16028;42.642;23.310;2023-07-02T04:01:00;93366.13;;;18.14;100.00
28911;BME280;16028;42.642;23.310;2023-07-02T04:03:30;93361.91;;;18.07;100.00
28911;BME280;16028;42.642;23.310;2023-07-02T04:05:56;93372.00;;;18.10;100.00
28911;BME280;16028;42.642;23.310;2023-07-02T04:08:26;93377.09;;;18.11;100.00
28911;BME280;16028;42.642;23.310;2023-07-02T04:10:56;93386.81;;;18.11;100.00
28911;BME280;16028;42.642;23.310;2023-07-02T04:13:24;93387.19;;;18.14;100.00
28911;BME280;16028;42.642;23.310;2023-07-02T04:15:51;93384.56;;;18.14;100.00
28911;BME280;16028;42.642;23.310;2023-07-02T04:18:23;93392.84;;;18.18;100.00
28911;BME280;16028;42.642;23.310;2023-07-02T04:20:50;93401.53;;;18.25;100.00
28911;BME280;16028;42.642;23.310;2023-07-02T04:23:17;93397.28;;;18.24;100.00
28911;BME280;16028;42.642;23.310;2023-07-02T04:25:44;93389.97;;;18.26;100.00
28911;BME280;16028;42.642;23.310;2023-07-02T04:28:11;93402.53;;;18.24;100.00
28911;BME280;16028;42.642;23.310;2023-07-02T04:30:39;93407.00;;;18.23;100.00
28911;BME280;16028;42.642;23.310;2023-07-02T04:33:07;93412.25;;;18.23;100.00
28911;BME280;16028;42.642;23.310;2023-07-02T04:35:34;93417.53;;;18.23;100.00
28911;BME280;16028;42.642;23.310;2023-07-02T04:38:01;93424.00;;;18.27;100.00
28911;BME280;16028;42.642;23.310;2023-07-02T04:40:28;93430.50;;;18.25;100.00
28911;BME280;16028;42.642;23.310;2023-07-02T04:42:55;93430.88;;;18.28;100.00
28911;BME280;16028;42.642;23.310;2023-07-02T04:45:24;93439.59;;;18.22;100.00
28911;BME280;16028;42.642;23.310;2023-07-02T04:47:53;93432.31;;;18.24;100.00
28911;BME280;16028;42.642;23.310;2023-07-02T04:50:20;93434.53;;;18.27;100.00
28911;BME280;16028;42.642;23.310;2023-07-02T04:52:47;93423.63;;;18.24;100.00
28911;BME280;16028;42.642;23.310;2023-07-02T04:55:14;93442.44;;;18.27;100.00
28911;BME280;16028;42.642;23.310;2023-07-02T04:57:41;93445.47;;;18.31;100.00
28911;BME280;16028;42.642;23.310;2023-07-02T05:00:11;93447.88;;;18.32;100.00
28911;BME280;16028;42.642;23.310;2023-07-02T05:02:38;93434.53;;;18.34;100.00
28911;BME280;16028;42.642;23.310;2023-07-02T05:05:08;93451.69;;;18.43;100.00
28911;BME280;16028;42.642;23.310;2023-07-02T05:07:35;93460.81;;;18.47;100.00
28911;BME280;16028;42.642;23.310;2023-07-02T05:10:01;93452.91;;;18.47;100.00
28911;BME280;16028;42.642;23.310;2023-07-02T05:12:30;93447.44;;;18.42;100.00
28911;BME280;16028;42.642;23.310;2023-07-02T05:14:57;93445.41;;;18.44;100.00
28911;BME280;16028;42.642;23.310;2023-07-02T05:17:24;93452.69;;;18.48;100.00
28911;BME280;16028;42.642;23.310;2023-07-02T05:19:55;93456.31;;;18.54;100.00
28911;BME280;16028;42.642;23.310;2023-07-02T05:22:24;93450.69;;;18.51;100.00
28911;BME280;16028;42.642;23.310;2023-07-02T05:24:51;93440.28;;;18.62;100.00
28911;BME280;16028;42.642;23.310;2023-07-02T05:27:17;93451.00;;;18.67;100.00
28911;BME280;16028;42.642;23.310;2023-07-02T05:29:44;93441.53;;;18.60;100.00
28911;BME280;16028;42.642;23.310;2023-07-02T05:32:11;93447.81;;;18.59;100.00
28911;BME280;16028;42.642;23.310;2023-07-02T05:34:38;93453.03;;;18.65;100.00
28911;BME280;16028;42.642;23.310;2023-07-02T05:37:05;93449.81;;;18.63;100.00
28911;BME280;16028;42.642;23.310;2023-07-02T05:39:34;93454.06;;;18.64;100.00
28911;BME280;16028;42.642;23.310;2023-07-02T05:42:04;93447.91;;;18.77;100.00
28911;BME280;16028;42.642;23.310;2023-07-02T05:44:31;93450.78;;;18.75;100.00
28911;BME280;16028;42.642;23.310;2023-07-02T05:46:58;93451.19;;;18.72;100.00
28911;BME280;16028;42.642;23.310;2023-07-02T05:49:25;93446.91;;;18.78;100.00
28911;BME280;16028;42.642;23.310;2023-07-02T05:51:52;93457.44;;;18.78;100.00
28911;BME280;16028;42.642;23.310;2023-07-02T05:54:19;93470.50;;;18.60;100.00
28911;BME280;16028;42.642;23.310;2023-07-02T05:56:47;93466.06;;;18.60;100.00
28911;BME280;16028;42.642;23.310;2023-07-02T05:59:14;93468.28;;;18.63;100.00
28911;BME280;16028;42.642;23.310;2023-07-02T06:01:43;93463.00;;;18.63;100.00
28911;BME280;16028;42.642;23.310;2023-07-02T06:04:10;93452.63;;;18.68;100.00
28911;BME280;16028;42.642;23.310;2023-07-02T06:06:36;93453.75;;;18.85;100.00
28911;BME280;16028;42.642;23.310;2023-07-02T06:09:03;93458.94;;;18.98;100.00
28911;BME280;16028;42.642;23.310;2023-07-02T06:11:30;93449.59;;;19.02;100.00
28911;BME280;16028;42.642;23.310;2023-07-02T06:13:58;93450.38;;;19.10;100.00
28911;BME280;16028;42.642;23.310;2023-07-02T06:16:25;93450.38;;;19.10;100.00
28911;BME280;16028;42.642;23.310;2023-07-02T06:18:53;93441.91;;;19.01;100.00
28911;BME280;16028;42.642;23.310;2023-07-02T06:21:20;93438.66;;;18.99;100.00
28911;BME280;16028;42.642;23.310;2023-07-02T06:23:47;93441.63;;;19.09;100.00
28911;BME280;16028;42.642;23.310;2023-07-02T06:26:14;93443.25;;;19.10;100.00
28911;BME280;16028;42.642;23.310;2023-07-02T06:28:41;93453.59;;;19.12;100.00
28911;BME280;16028;42.642;23.310;2023-07-02T06:31:09;93443.81;;;19.19;100.00
28911;BME280;16028;42.642;23.310;2023-07-02T06:33:40;93436.91;;;19.18;100.00
28911;BME280;16028;42.642;23.310;2023-07-02T06:36:07;93438.34;;;19.20;100.00
28911;BME280;16028;42.642;23.310;2023-07-02T06:38:34;93435.66;;;19.27;100.00
28911;BME280;16028;42.642;23.310;2023-07-02T06:41:01;93427.75;;;19.27;100.00
28911;BME280;16028;42.642;23.310;2023-07-02T06:43:28;93429.28;;;19.41;100.00
28911;BME280;16028;42.642;23.310;2023-07-02T06:45:55;93427.53;;;19.53;100.00
28911;BME280;16028;42.642;23.310;2023-07-02T06:48:23;93427.34;;;19.54;100.00
28911;BME280;16028;42.642;23.310;2023-07-02T06:50:49;93429.19;;;19.72;100.00
28911;BME280;16028;42.642;23.310;2023-07-02T06:53:16;93427.75;;;19.76;100.00
28911;BME280;16028;42.642;23.310;2023-07-02T06:55:43;93418.94;;;19.82;100.00
28911;BME280;16028;42.642;23.310;2023-07-02T06:58:10;93417.50;;;19.86;100.00
28911;BME280;16028;42.642;23.310;2023-07-02T07:00:37;93431.31;;;20.06;100.00
28911;BME280;16028;42.642;23.310;2023-07-02T07:03:07;93429.63;;;20.12;100.00
28911;BME280;16028;42.642;23.310;2023-07-02T07:05:35;93437.81;;;20.29;100.00
28911;BME280;16028;42.642;23.310;2023-07-02T07:08:02;93445.72;;;20.47;100.00
28911;BME280;16028;42.642;23.310;2023-07-02T07:10:29;93448.81;;;20.44;100.00
28911;BME280;16028;42.642;23.310;2023-07-02T07:13:00;93442.63;;;20.50;98.22
28911;BME280;16028;42.642;23.310;2023-07-02T07:15:26;93450.44;;;20.45;100.00
28911;BME280;16028;42.642;23.310;2023-07-02T07:17:53;93449.16;;;20.47;100.00
28911;BME280;16028;42.642;23.310;2023-07-02T07:20:20;93451.06;;;20.58;99.91
28911;BME280;16028;42.642;23.310;2023-07-02T07:22:48;93452.69;;;20.59;100.00
28911;BME280;16028;42.642;23.310;2023-07-02T07:25:17;93452.47;;;20.61;100.00
28911;BME280;16028;42.642;23.310;2023-07-02T07:27:44;93452.25;;;20.63;97.61
28911;BME280;16028;42.642;23.310;2023-07-02T09:13:21;93427.13;;;22.59;81.12
28911;BME280;16028;42.642;23.310;2023-07-02T09:15:47;93433.94;;;22.55;84.51
28911;BME280;16028;42.642;23.310;2023-07-02T09:18:18;93425.84;;;22.50;85.14
28911;BME280;16028;42.642;23.310;2023-07-02T09:20:46;93428.16;;;22.58;85.84
28911;BME280;16028;42.642;23.310;2023-07-02T09:23:12;93427.00;;;22.65;83.53
28911;BME280;16028;42.642;23.310;2023-07-02T09:25:40;93427.91;;;22.71;84.41
28911;BME280;16028;42.642;23.310;2023-07-02T09:28:18;93432.22;;;22.89;79.90
28911;BME280;16028;42.642;23.310;2023-07-02T09:30:53;93433.72;;;22.85;79.49
28911;BME280;16028;42.642;23.310;2023-07-02T09:33:20;93424.59;;;22.92;80.10
28911;BME280;16028;42.642;23.310;2023-07-02T09:52:40;93416.94;;;23.69;72.17
28911;BME280;16028;42.642;23.310;2023-07-02T09:55:08;93421.59;;;23.79;70.21
28911;BME280;16028;42.642;23.310;2023-07-02T09:57:35;93410.75;;;23.63;75.60
28911;BME280;16028;42.642;23.310;2023-07-02T10:00:03;93420.00;;;23.61;74.04
28911;BME280;16028;42.642;23.310;2023-07-02T10:02:30;93419.41;;;23.59;73.84
28911;BME280;16028;42.642;23.310;2023-07-02T10:04:57;93412.84;;;23.45;76.65
28911;BME280;16028;42.642;23.310;2023-07-02T10:07:28;93405.56;;;23.40;74.83
28911;BME280;16028;42.642;23.310;2023-07-02T10:09:57;93411.13;;;23.39;75.71
28911;BME280;16028;42.642;23.310;2023-07-02T10:12:24;93400.88;;;23.31;76.63
28911;BME280;16028;42.642;23.310;2023-07-02T10:14:52;93403.47;;;23.42;74.42
28911;BME280;16028;42.642;23.310;2023-07-02T10:17:26;93401.63;;;23.43;76.39
28911;BME280;16028;42.642;23.310;2023-07-02T10:19:54;93399.47;;;23.40;75.51
28911;BME280;16028;42.642;23.310;2023-07-02T10:22:22;93390.31;;;23.47;75.18
28911;BME280;16028;42.642;23.310;2023-07-02T10:24:53;93386.28;;;23.45;76.85
28911;BME280;16028;42.642;23.310;2023-07-02T10:27:34;93380.03;;;23.39;74.88
28911;BME280;16028;42.642;23.310;2023-07-02T10:30:06;93384.88;;;23.42;72.07
28911;BME280;16028;42.642;23.310;2023-07-02T10:32:34;93371.38;;;23.44;76.69
28911;BME280;16028;42.642;23.310;2023-07-02T10:35:01;93369.91;;;23.36;76.47
28911;BME280;16028;42.642;23.310;2023-07-02T10:37:38;93378.00;;;23.41;72.88
28911;BME280;16028;42.642;23.310;2023-07-02T10:40:07;93378.13;;;23.35;75.20
28911;BME280;16028;42.642;23.310;2023-07-02T10:42:46;93388.84;;;23.40;74.05
28911;BME280;16028;42.642;23.310;2023-07-02T10:45:13;93383.00;;;23.54;70.10
28911;BME280;16028;42.642;23.310;2023-07-02T10:47:40;93384.41;;;23.79;67.58
28911;BME280;16028;42.642;23.310;2023-07-02T10:50:15;93378.72;;;23.70;68.29
28911;BME280;16028;42.642;23.310;2023-07-02T10:52:41;93378.53;;;23.77;69.10
28911;BME280;16028;42.642;23.310;2023-07-02T10:55:10;93386.19;;;23.73;67.73
28911;BME280;16028;42.642;23.310;2023-07-02T10:57:42;93378.13;;;23.68;67.89
28911;BME280;16028;42.642;23.310;2023-07-02T11:00:11;93377.03;;;23.64;69.91
28911;BME280;16028;42.642;23.310;2023-07-02T11:02:38;93369.75;;;23.76;68.94
28911;BME280;16028;42.642;23.310;2023-07-02T11:05:06;93376.38;;;23.74;69.82
28911;BME280;16028;42.642;23.310;2023-07-02T11:07:37;93370.97;;;23.68;71.11
28911;BME280;16028;42.642;23.310;2023-07-02T11:10:04;93369.78;;;23.59;71.45
28911;BME280;16028;42.642;23.310;2023-07-02T11:12:32;93366.94;;;23.66;72.94
28911;BME280;16028;42.642;23.310;2023-07-02T11:15:07;93366.63;;;23.79;70.22
28911;BME280;16028;42.642;23.310;2023-07-02T11:17:35;93359.53;;;23.85;69.63
28911;BME280;16028;42.642;23.310;2023-07-02T11:20:04;93368.34;;;23.90;68.74
28911;BME280;16028;42.642;23.310;2023-07-02T11:22:31;93363.84;;;23.91;69.75
28911;BME280;16028;42.642;23.310;2023-07-02T11:25:08;93376.41;;;24.12;65.98
28911;BME280;16028;42.642;23.310;2023-07-02T11:27:35;93369.31;;;24.17;75.12
28911;BME280;16028;42.642;23.310;2023-07-02T11:30:03;93363.00;;;24.23;68.40
28911;BME280;16028;42.642;23.310;2023-07-02T11:32:29;93359.41;;;24.35;66.41
28911;BME280;16028;42.642;23.310;2023-07-02T11:34:57;93371.47;;;24.42;65.76
28911;BME280;16028;42.642;23.310;2023-07-02T11:37:25;93373.09;;;24.43;68.00
28911;BME280;16028;42.642;23.310;2023-07-02T11:39:53;93382.03;;;24.81;65.95
28911;BME280;16028;42.642;23.310;2023-07-02T11:42:20;93385.34;;;24.88;64.81
28911;BME280;16028;42.642;23.310;2023-07-02T11:44:47;93373.28;;;24.58;66.54
28911;BME280;16028;42.642;23.310;2023-07-02T11:47:14;93370.66;;;24.42;67.20
28911;BME280;16028;42.642;23.310;2023-07-02T11:49:40;93387.78;;;24.29;66.77
28911;BME280;16028;42.642;23.310;2023-07-02T11:52:08;93398.22;;;24.14;67.10
28911;BME280;16028;42.642;23.310;2023-07-02T11:54:35;93389.09;;;24.10;66.54
28911;BME280;16028;42.642;23.310;2023-07-02T11:57:04;93401.94;;;23.96;66.73
28911;BME280;16028;42.642;23.310;2023-07-02T11:59:31;93407.13;;;23.86;62.56
28911;BME280;16028;42.642;23.310;2023-07-02T12:01:58;93401.25;;;23.67;63.57
28911;BME280;16028;42.642;23.310;2023-07-02T12:04:24;93396.09;;;23.61;62.66
28911;BME280;16028;42.642;23.310;2023-07-02T12:06:51;93395.44;;;23.54;64.89
28911;BME280;16028;42.642;23.310;2023-07-02T12:09:19;93402.78;;;23.63;62.42
28911;BME280;16028;42.642;23.310;2023-07-02T12:11:46;93399.63;;;23.66;64.93
28911;BME280;16028;42.642;23.310;2023-07-02T12:14:13;93405.34;;;23.58;66.58
28911;BME280;16028;42.642;23.310;2023-07-02T12:16:39;93411.28;;;23.49;67.17
28911;BME280;16028;42.642;23.310;2023-07-02T12:19:06;93405.66;;;23.45;67.91
28911;BME280;16028;42.642;23.310;2023-07-02T12:21:33;93404.28;;;23.43;67.45
28911;BME280;16028;42.642;23.310;2023-07-02T12:24:00;93393.13;;;23.41;69.15
28911;BME280;16028;42.642;23.310;2023-07-02T12:26:28;93396.94;;;23.33;69.89
28911;BME280;16028;42.642;23.310;2023-07-02T12:28:55;93395.97;;;23.23;70.76
28911;BME280;16028;42.642;23.310;2023-07-02T12:31:22;93393.94;;;23.13;73.61
28911;BME280;16028;42.642;23.310;2023-07-02T12:33:48;93401.63;;;22.98;76.82
28911;BME280;16028;42.642;23.310;2023-07-02T12:36:15;93392.44;;;22.89;82.43
28911;BME280;16028;42.642;23.310;2023-07-02T12:38:42;93386.47;;;22.82;83.96
28911;BME280;16028;42.642;23.310;2023-07-02T12:41:08;93387.53;;;22.81;82.98
28911;BME280;16028;42.642;23.310;2023-07-02T12:43:37;93395.28;;;22.71;81.34
28911;BME280;16028;42.642;23.310;2023-07-02T12:46:03;93394.34;;;22.65;83.00
28911;BME280;16028;42.642;23.310;2023-07-02T12:48:30;93386.94;;;22.79;84.70
28911;BME280;16028;42.642;23.310;2023-07-02T12:50:58;93380.47;;;22.86;82.11
28911;BME280;16028;42.642;23.310;2023-07-02T12:53:25;93386.94;;;22.79;81.67
28911;BME280;16028;42.642;23.310;2023-07-02T12:55:53;93388.09;;;22.83;81.80
28911;BME280;16028;42.642;23.310;2023-07-02T12:58:20;93396.28;;;22.81;82.23
28911;BME280;16028;42.642;23.310;2023-07-02T13:00:48;93390.41;;;22.79;84.06
28911;BME280;16028;42.642;23.310;2023-07-02T13:03:17;93386.09;;;22.90;82.31
28911;BME280;16028;42.642;23.310;2023-07-02T13:05:44;93382.91;;;23.04;81.55
28911;BME280;16028;42.642;23.310;2023-07-02T13:08:10;93386.75;;;23.13;81.27
28911;BME280;16028;42.642;23.310;2023-07-02T13:10:37;93382.94;;;23.38;80.05
28911;BME280;16028;42.642;23.310;2023-07-02T13:13:04;93378.94;;;23.52;81.69
28911;BME280;16028;42.642;23.310;2023-07-02T13:15:31;93374.97;;;23.71;81.79
28911;BME280;16028;42.642;23.310;2023-07-02T13:18:01;93372.84;;;24.06;78.43
28911;BME280;16028;42.642;23.310;2023-07-02T13:20:28;93365.22;;;24.32;76.07
28911;BME280;16028;42.642;23.310;2023-07-02T13:22:55;93358.19;;;24.42;78.99
28911;BME280;16028;42.642;23.310;2023-07-02T13:25:23;93351.06;;;24.69;76.38
28911;BME280;16028;42.642;23.310;2023-07-02T13:27:50;93353.00;;;25.01;70.38
28911;BME280;16028;42.642;23.310;2023-07-02T13:30:17;93356.41;;;24.96;71.30
28911;BME280;16028;42.642;23.310;2023-07-02T13:32:43;93355.03;;;24.89;68.70
28911;BME280;16028;42.642;23.310;2023-07-02T13:35:12;93359.94;;;24.80;69.98
28911;BME280;16028;42.642;23.310;2023-07-02T13:37:38;93361.63;;;24.86;68.19
28911;BME280;16028;42.642;23.310;2023-07-02T13:40:06;93354.25;;;24.71;68.82
28911;BME280;16028;42.642;23.310;2023-07-02T13:42:38;93350.25;;;24.69;69.37
28911;BME280;16028;42.642;23.310;2023-07-02T13:45:06;93354.97;;;24.62;70.63
28911;BME280;16028;42.642;23.310;2023-07-02T13:47:33;93357.50;;;24.52;71.39
28911;BME280;16028;42.642;23.310;2023-07-02T13:50:00;93353.22;;;24.51;71.14
28911;BME280;16028;42.642;23.310;2023-07-02T13:52:29;93342.50;;;24.41;72.92
28911;BME280;16028;42.642;23.310;2023-07-02T13:54:56;93353.50;;;24.28;75.01
28911;BME280;16028;42.642;23.310;2023-07-02T13:57:24;93355.84;;;24.24;74.68
28911;BME280;16028;42.642;23.310;2023-07-02T13:59:52;93358.69;;;24.17;74.88
28911;BME280;16028;42.642;23.310;2023-07-02T14:02:20;93363.13;;;24.12;75.77
28911;BME280;16028;42.642;23.310;2023-07-02T14:04:47;93366.66;;;24.01;74.15
28911;BME280;16028;42.642;23.310;2023-07-02T14:07:14;93362.50;;;23.88;73.08
28911;BME280;16028;42.642;23.310;2023-07-02T14:09:41;93352.13;;;23.87;74.12
28911;BME280;16028;42.642;23.310;2023-07-02T14:12:08;93353.06;;;23.81;74.39
28911;BME280;16028;42.642;23.310;2023-07-02T14:14:35;93351.25;;;23.64;75.84
28911;BME280;16028;42.642;23.310;2023-07-02T14:17:03;93347.72;;;23.59;77.20
28911;BME280;16028;42.642;23.310;2023-07-02T14:19:30;93347.81;;;23.64;77.44
28911;BME280;16028;42.642;23.310;2023-07-02T14:21:57;93347.38;;;23.72;75.40
28911;BME280;16028;42.642;23.310;2023-07-02T14:24:23;93357.84;;;23.62;76.36
28911;BME280;16028;42.642;23.310;2023-07-02T14:26:51;93359.16;;;23.43;78.06
28911;BME280;16028;42.642;23.310;2023-07-02T14:29:18;93358.34;;;23.42;78.02
28911;BME280;16028;42.642;23.310;2023-07-02T14:31:45;93364.38;;;23.38;77.58
28911;BME280;16028;42.642;23.310;2023-07-02T14:34:13;93353.34;;;23.46;70.99
28911;BME280;16028;42.642;23.310;2023-07-02T14:36:40;93354.22;;;23.35;77.02
28911;BME280;16028;42.642;23.310;2023-07-02T14:39:06;93354.06;;;23.25;78.06
28911;BME280;16028;42.642;23.310;2023-07-02T14:41:33;93358.34;;;23.26;79.68
28911;BME280;16028;42.642;23.310;2023-07-02T14:44:01;93363.88;;;23.24;80.89
28911;BME280;16028;42.642;23.310;2023-07-02T14:46:28;93361.69;;;23.21;80.30
28911;BME280;16028;42.642;23.310;2023-07-02T14:48:55;93363.06;;;23.24;81.01